createdAt,value
2019-03-22T00:04:00.775Z,48
2019-03-22T00:09:00.825Z,49
2019-03-22T00:14:00.782Z,47
2019-03-22T00:19:00.835Z,47
2019-03-22T00:24:00.824Z,48
2019-03-22T00:29:00.801Z,47
2019-03-22T00:34:00.768Z,46
2019-03-22T00:39:00.790Z,46
2019-03-22T00:44:00.748Z,48
2019-03-22T00:49:00.792Z,47
2019-03-22T00:54:04.373Z,48
2019-03-22T00:59:00.737Z,47
2019-03-22T01:04:00.744Z,46
2019-03-22T01:09:00.754Z,48
2019-03-22T01:14:00.703Z,45
2019-03-22T01:19:00.705Z,46
2019-03-22T01:24:00.734Z,44
2019-03-22T01:29:00.682Z,43
2019-03-22T01:34:00.679Z,44
2019-03-22T01:39:00.732Z,46
2019-03-22T01:44:00.705Z,44
2019-03-22T01:49:00.659Z,44
2019-03-22T01:54:00.707Z,44
2019-03-22T01:59:00.647Z,41
2019-03-22T02:04:00.673Z,40
2019-03-22T02:09:00.679Z,43
2019-03-22T02:14:00.690Z,41
2019-03-22T02:19:00.673Z,43
2019-03-22T02:24:00.634Z,44
2019-03-22T02:29:00.663Z,44
2019-03-22T02:34:00.641Z,44
2019-03-22T02:39:00.669Z,42
2019-03-22T02:44:00.614Z,44
2019-03-22T02:49:00.678Z,43
2019-03-22T02:54:00.638Z,43
2019-03-22T02:59:00.691Z,43
2019-03-22T03:04:00.601Z,40
2019-03-22T03:09:00.611Z,44
2019-03-22T03:14:02.058Z,40
2019-03-22T03:19:00.735Z,46
2019-03-22T03:24:00.599Z,45
2019-03-22T03:29:00.627Z,45
2019-03-22T03:34:00.654Z,43
2019-03-22T03:39:00.569Z,45
2019-03-22T03:44:00.590Z,42
2019-03-22T03:49:00.532Z,43
2019-03-22T03:54:00.562Z,43
2019-03-22T03:59:00.541Z,42
2019-03-22T04:04:00.534Z,44
2019-03-22T04:09:00.509Z,43
2019-03-22T04:14:00.545Z,44
2019-03-22T04:19:00.539Z,45
2019-03-22T04:24:00.492Z,46
2019-03-22T04:29:08.421Z,45
2019-03-22T04:34:00.526Z,46
2019-03-22T04:39:00.510Z,47
2019-03-22T04:44:00.504Z,44
2019-03-22T04:49:00.515Z,45
2019-03-22T04:54:00.496Z,43
2019-03-22T04:59:00.503Z,44
2019-03-22T05:04:01.742Z,46
2019-03-22T05:09:00.476Z,46
2019-03-22T05:14:01.308Z,44
2019-03-22T05:19:00.524Z,45
2019-03-22T05:24:00.533Z,46
2019-03-22T05:29:00.444Z,43
2019-03-22T05:34:00.484Z,43
2019-03-22T05:39:00.431Z,42
2019-03-22T05:44:00.461Z,43
2019-03-22T05:49:00.417Z,44
2019-03-22T05:54:00.438Z,41
2019-03-22T05:59:01.569Z,41
2019-03-22T06:04:01.555Z,40
2019-03-22T06:09:00.458Z,40
2019-03-22T06:14:00.404Z,39
2019-03-22T06:19:00.388Z,41
2019-03-22T06:24:00.367Z,40
2019-03-22T06:29:00.362Z,87
2019-03-22T06:34:05.499Z,61
2019-03-22T06:39:03.382Z,53
2019-03-22T06:44:03.353Z,51
2019-03-22T06:49:03.382Z,46
2019-03-22T06:54:03.389Z,45
2019-03-22T06:59:03.378Z,44
2019-03-22T07:04:03.373Z,43
2019-03-22T07:09:03.346Z,41
2019-03-22T07:14:03.327Z,40
2019-03-22T07:19:03.340Z,40
2019-03-22T07:24:03.327Z,41
2019-03-22T07:29:03.336Z,42
2019-03-22T07:34:03.407Z,43
2019-03-22T07:39:03.309Z,43
2019-03-22T07:44:03.317Z,40
2019-03-22T07:49:03.353Z,38
2019-03-22T07:54:03.921Z,39
2019-03-22T07:59:03.289Z,39
2019-03-22T08:04:03.347Z,37
2019-03-22T08:09:03.263Z,37
2019-03-22T08:14:03.252Z,37
2019-03-22T08:19:03.273Z,35
2019-03-22T08:24:03.284Z,37
2019-03-22T08:29:03.359Z,35
2019-03-22T08:34:03.281Z,34
2019-03-22T08:39:03.253Z,35
2019-03-22T08:44:03.259Z,36
2019-03-22T08:49:03.401Z,35
2019-03-22T08:54:05.238Z,35
2019-03-22T08:59:03.243Z,34
2019-03-22T09:04:03.239Z,35
2019-03-22T09:09:03.292Z,33
2019-03-22T09:14:03.231Z,34
2019-03-22T09:19:03.205Z,33
2019-03-22T09:24:03.254Z,36
2019-03-22T09:29:03.232Z,33
2019-03-22T09:34:03.296Z,32
2019-03-22T09:39:03.224Z,31
2019-03-22T09:44:03.219Z,31
2019-03-22T09:49:03.188Z,31
2019-03-22T09:54:03.232Z,30
2019-03-22T09:59:03.264Z,29
2019-03-22T10:04:03.158Z,28
2019-03-22T10:09:05.626Z,27
2019-03-22T10:14:03.256Z,28
2019-03-22T10:19:03.319Z,27
2019-03-22T10:24:03.178Z,25
2019-03-22T10:29:03.285Z,25
2019-03-22T10:34:03.180Z,23
2019-03-22T10:39:03.174Z,24
2019-03-22T10:44:03.128Z,24
2019-03-22T10:49:03.142Z,20
2019-03-22T10:54:03.221Z,16
2019-03-22T10:59:03.155Z,17
2019-03-22T11:04:03.247Z,16
2019-03-22T11:09:04.660Z,15
2019-03-22T11:14:03.117Z,17
2019-03-22T11:19:03.087Z,13
2019-03-22T11:24:03.092Z,13
2019-03-22T11:29:03.080Z,13
2019-03-22T11:34:03.075Z,14
2019-03-22T11:39:03.039Z,13
2019-03-22T11:44:03.070Z,11
2019-03-22T11:49:03.079Z,11
2019-03-22T11:54:03.071Z,9
2019-03-22T11:59:03.095Z,12
2019-03-22T12:04:03.073Z,11
2019-03-22T12:09:03.065Z,8
2019-03-22T12:14:03.009Z,9
2019-03-22T12:19:03.025Z,8
2019-03-22T12:24:03.017Z,7
2019-03-22T12:29:03.087Z,8
2019-03-22T12:34:04.384Z,7
2019-03-22T12:39:03.000Z,9
2019-03-22T12:44:03.015Z,8
2019-03-22T12:49:03.027Z,6
2019-03-22T12:54:02.973Z,5
2019-03-22T12:59:02.988Z,5
2019-03-22T13:04:03.047Z,5
2019-03-22T13:09:03.026Z,5
2019-03-22T13:14:02.954Z,4
2019-03-22T13:19:02.986Z,4
2019-03-22T13:24:02.971Z,4
2019-03-22T13:29:02.955Z,4
2019-03-22T13:34:02.938Z,5
2019-03-22T13:39:02.967Z,4
2019-03-22T13:44:02.970Z,2
2019-03-22T13:49:02.930Z,3
2019-03-22T13:54:02.972Z,3
2019-03-22T13:59:02.986Z,3
2019-03-22T14:04:02.975Z,5
2019-03-22T14:09:02.935Z,4
2019-03-22T14:14:02.909Z,4
2019-03-22T14:19:02.908Z,4
2019-03-22T14:24:02.973Z,4
2019-03-22T14:29:02.903Z,3
2019-03-22T14:34:02.888Z,3
2019-03-22T14:39:02.926Z,3
2019-03-22T14:44:02.868Z,4
2019-03-22T14:49:02.880Z,4
2019-03-22T14:54:02.880Z,2
2019-03-22T14:59:02.879Z,3
2019-03-22T15:04:02.861Z,4
2019-03-22T15:09:02.913Z,4
2019-03-22T15:14:02.838Z,3
2019-03-22T15:19:02.834Z,5
2019-03-22T15:24:03.915Z,3
2019-03-22T15:29:03.056Z,4
2019-03-22T15:34:05.032Z,3
2019-03-22T15:39:03.098Z,4
2019-03-22T15:44:03.010Z,5
2019-03-22T15:49:02.860Z,4
2019-03-22T15:54:02.841Z,5
2019-03-22T15:59:02.801Z,4
2019-03-22T16:04:02.853Z,3
2019-03-22T16:09:02.797Z,3
2019-03-22T16:14:02.837Z,4
2019-03-22T16:19:02.789Z,3
2019-03-22T16:24:02.825Z,4
2019-03-22T16:29:02.780Z,6
2019-03-22T16:34:02.833Z,7
2019-03-22T16:39:02.777Z,10
2019-03-22T16:44:02.763Z,11
2019-03-22T16:49:02.759Z,10
2019-03-22T16:54:02.743Z,7
2019-03-22T16:59:02.775Z,8
2019-03-22T17:04:04.909Z,7
2019-03-22T17:09:02.720Z,8
2019-03-22T17:14:02.743Z,9
2019-03-22T17:19:02.743Z,9
2019-03-22T17:24:02.851Z,8
2019-03-22T17:29:02.718Z,8
2019-03-22T17:34:02.722Z,8
2019-03-22T17:39:02.723Z,11
2019-03-22T17:44:02.697Z,10
2019-03-22T17:49:02.721Z,9
2019-03-22T17:54:02.674Z,10
2019-03-22T17:59:02.695Z,18
2019-03-22T18:04:02.726Z,12
2019-03-22T18:09:02.677Z,10
2019-03-22T18:14:02.648Z,12
2019-03-22T18:19:02.669Z,12
2019-03-22T18:24:02.664Z,10
2019-03-22T18:29:02.661Z,9
2019-03-22T18:34:02.697Z,7
2019-03-22T18:39:02.640Z,6
2019-03-22T18:44:02.698Z,7
2019-03-22T18:49:02.676Z,6
2019-03-22T18:54:02.661Z,7
2019-03-22T18:59:02.629Z,6
2019-03-22T19:04:02.623Z,10
2019-03-22T19:09:02.639Z,10
2019-03-22T19:14:02.676Z,9
2019-03-22T19:19:02.579Z,7
2019-03-22T19:24:02.625Z,8
2019-03-22T19:29:02.597Z,7
2019-03-22T19:34:02.597Z,8
2019-03-22T19:39:02.608Z,8
2019-03-22T19:44:02.559Z,6
2019-03-22T19:49:02.563Z,7
2019-03-22T19:54:02.621Z,6
2019-03-22T19:59:02.543Z,6
2019-03-22T20:04:02.545Z,7
2019-03-22T20:09:02.592Z,8
2019-03-22T20:14:02.540Z,8
2019-03-22T20:19:02.541Z,7
2019-03-22T20:24:02.550Z,7
2019-03-22T20:29:02.539Z,7
2019-03-22T20:34:02.536Z,9
2019-03-22T20:39:02.529Z,8
2019-03-22T20:44:02.510Z,9
2019-03-22T20:49:04.195Z,8
2019-03-22T21:50:50.183Z,6
2019-03-22T21:55:50.175Z,6
2019-03-22T22:40:50.138Z,8
2019-03-22T22:45:50.116Z,9
2019-03-22T22:50:50.128Z,8
2019-03-22T22:55:50.118Z,7
2019-03-22T23:00:50.132Z,5
2019-03-22T23:05:50.099Z,8
2019-03-22T23:10:50.078Z,6
2019-03-22T23:15:50.116Z,7
2019-03-22T23:20:50.112Z,7
2019-03-22T23:25:50.080Z,6
2019-03-22T23:30:50.057Z,6
2019-03-22T23:35:50.056Z,5
2019-03-22T23:40:50.052Z,7
2019-03-22T23:45:50.039Z,6
2019-03-22T23:50:50.022Z,4
2019-03-22T23:55:50.022Z,5
